Time;durP1;ratioP1;P1;durP2;ratioP2;P2;SDS_P1;SDS_P2;PMS_P1;PMS_P2;Temp;Humidity;BMP_temperature;BMP_pressure;BME280_temperature;BME280_humidity;BME280_pressure;Samples;Min_cycle;Max_cycle;Signal;HPM_P1;HPM_P2
2023/12/01 00:01:28;;;;;;;;;;;;;;;21.71;24.78;97521.56;5011843;28;1059;-75
2023/12/01 00:03:54;;;;;;;;;;;;;;;22.04;24.29;97515.56;5011367;28;945;-76
2023/12/01 00:06:19;;;;;;;;;;;;;;;21.98;24.29;97512.53;5011287;28;1029;-76
2023/12/01 00:08:45;;;;;;;;;;;;;;;21.66;24.55;97502.34;5011146;28;1638;-75
2023/12/01 00:11:10;;;;;;;;;;;;;;;22.06;24.38;97496.03;4995136;28;1115;-76
2023/12/01 00:13:36;;;;;;;;;;;;;;;21.60;24.82;97504.13;4994282;28;1902;-76
2023/12/01 00:16:01;;;;;;;;;;;;;;;21.50;25.00;97488.31;5011487;28;941;-76
2023/12/01 00:18:27;;;;;;;;;;;;;;;21.27;25.17;97493.09;5014523;28;999;-76
2023/12/01 00:20:52;;;;;;;;;;;;;;;21.82;24.52;97490.03;5014782;28;1241;-75
2023/12/01 00:23:19;;;;;;;;;;;;;;;22.02;24.24;97495.38;5014306;28;980;-76
2023/12/01 00:25:45;;;;;;;;;;;;;;;22.00;24.16;97503.56;4998038;28;1009;-76
2023/12/01 00:28:10;;;;;;;;;;;;;;;21.96;24.26;97508.56;5014453;28;1358;-75
2023/12/01 00:30:36;;;;;;;;;;;;;;;22.12;24.33;97514.06;5003372;28;1052;-76
2023/12/01 00:33:02;;;;;;;;;;;;;;;21.97;24.44;97504.50;5014275;28;1991;-75
2023/12/01 00:35:28;;;;;;;;;;;;;;;21.98;24.58;97503.22;5030967;28;1157;-75
2023/12/01 00:37:53;;;;;;;;;;;;;;;22.18;24.08;97503.75;5014684;28;1049;-75
2023/12/01 00:40:19;;;;;;;;;;;;;;;21.84;24.61;97493.97;4997764;28;1148;-76
2023/12/01 00:42:44;;;;;;;;;;;;;;;21.99;24.40;97502.75;4981662;28;1123;-76
2023/12/01 00:45:10;;;;;;;;;;;;;;;21.91;24.51;97503.47;4981641;28;1158;-76
2023/12/01 00:47:35;;;;;;;;;;;;;;;21.59;24.63;97502.56;4998236;28;1119;-76
2023/12/01 00:50:01;;;;;;;;;;;;;;;21.29;25.46;97496.25;4996235;28;1208;-76
2023/12/01 00:52:26;;;;;;;;;;;;;;;21.07;25.72;97490.50;5017686;28;1902;-75
2023/12/01 00:54:52;;;;;;;;;;;;;;;21.57;24.84;97499.41;5017083;28;1070;-76
2023/12/01 00:57:17;;;;;;;;;;;;;;;21.83;24.53;97495.25;5017538;28;1282;-76
2023/12/01 00:59:43;;;;;;;;;;;;;;;21.94;24.39;97500.53;5017446;28;1004;-75
2023/12/01 01:02:08;;;;;;;;;;;;;;;21.89;24.68;97498.28;5017918;28;946;-75
2023/12/01 01:04:34;;;;;;;;;;;;;;;21.73;24.86;97493.56;5014152;28;1012;-75
2023/12/01 01:06:59;;;;;;;;;;;;;;;21.95;24.30;97498.47;5013882;28;1059;-76
2023/12/01 01:09:25;;;;;;;;;;;;;;;21.54;24.82;97488.97;4997599;28;1600;-75
2023/12/01 01:11:51;;;;;;;;;;;;;;;21.96;24.58;97474.56;4967432;28;1262;-76
2023/12/01 01:14:16;;;;;;;;;;;;;;;21.89;24.43;97481.28;5010910;28;1918;-75
2023/12/01 01:16:42;;;;;;;;;;;;;;;22.03;24.45;97469.44;4991111;28;1175;-76
2023/12/01 01:19:07;;;;;;;;;;;;;;;22.11;24.12;97481.31;4974963;28;1010;-76
2023/12/01 01:21:33;;;;;;;;;;;;;;;21.67;24.68;97475.59;4975455;28;1273;-75
2023/12/01 01:23:58;;;;;;;;;;;;;;;21.48;24.97;97479.50;4974779;28;1319;-76
2023/12/01 01:26:24;;;;;;;;;;;;;;;21.31;25.18;97476.81;4977578;28;1039;-75
2023/12/01 01:28:49;;;;;;;;;;;;;;;21.54;25.08;97472.00;4978821;28;1270;-75
2023/12/01 01:31:15;;;;;;;;;;;;;;;21.79;24.53;97471.13;4978393;28;975;-75
2023/12/01 01:33:40;;;;;;;;;;;;;;;21.72;24.78;97465.72;4994683;28;1965;-76
2023/12/01 01:36:06;;;;;;;;;;;;;;;21.85;24.72;97472.13;5008670;28;972;-76
2023/12/01 01:38:32;;;;;;;;;;;;;;;22.02;24.27;97476.38;4998117;28;1024;-76
2023/12/01 01:40:58;;;;;;;;;;;;;;;21.95;24.37;97475.81;4997950;28;975;-75
2023/12/01 01:43:24;;;;;;;;;;;;;;;21.88;24.51;97473.25;4981524;28;926;-76
2023/12/01 01:46:05;;;;;;;;;;;;;;;22.01;24.57;97476.81;4981702;28;954;-76
2023/12/01 01:48:30;;;;;;;;;;;;;;;22.19;23.99;97474.16;5001946;28;1422;-75
2023/12/01 01:50:56;;;;;;;;;;;;;;;22.15;24.22;97467.03;5021716;28;1083;-76
2023/12/01 01:53:23;;;;;;;;;;;;;;;21.89;24.75;97474.81;5021422;28;1894;-76
2023/12/01 01:55:48;;;;;;;;;;;;;;;21.30;25.16;97472.41;5037997;28;939;-76
2023/12/01 01:58:14;;;;;;;;;;;;;;;21.31;25.26;97473.19;5037960;28;1095;-75
2023/12/01 02:00:39;;;;;;;;;;;;;;;21.82;24.90;97476.66;5021541;28;1209;-76
2023/12/01 02:03:05;;;;;;;;;;;;;;;21.93;24.63;97464.16;5037737;28;1239;-75
2023/12/01 02:05:33;;;;;;;;;;;;;;;21.88;24.77;97461.91;5037852;28;1220;-76
2023/12/01 02:08:18;;;;;;;;;;;;;;;21.99;24.61;97465.16;5021608;28;1027;-75
2023/12/01 02:10:43;;;;;;;;;;;;;;;21.90;24.41;97453.75;5021276;28;1092;-76
2023/12/01 02:13:10;;;;;;;;;;;;;;;22.13;24.34;97461.81;5013307;28;2041;-76
2023/12/01 02:15:35;;;;;;;;;;;;;;;21.97;24.52;97459.16;4997151;28;1123;-76
2023/12/01 02:18:02;;;;;;;;;;;;;;;21.87;24.47;97449.00;5013198;28;982;-75
2023/12/01 02:20:27;;;;;;;;;;;;;;;21.43;25.05;97455.38;4996995;28;912;-76
2023/12/01 02:22:53;;;;;;;;;;;;;;;21.39;25.47;97453.91;5013158;28;1142;-76
2023/12/01 02:25:18;;;;;;;;;;;;;;;21.39;25.27;97442.59;5013414;28;977;-76
2023/12/01 02:27:44;;;;;;;;;;;;;;;21.96;24.68;97446.22;5013058;28;1676;-76
2023/12/01 02:30:10;;;;;;;;;;;;;;;21.68;24.99;97442.41;4993556;28;1143;-76
2023/12/01 02:32:35;;;;;;;;;;;;;;;21.83;24.63;97444.25;4977397;28;1977;-76
2023/12/01 02:35:01;;;;;;;;;;;;;;;21.82;24.84;97431.34;4977281;28;1055;-76
2023/12/01 02:37:26;;;;;;;;;;;;;;;21.91;24.83;97435.50;4992872;28;980;-76
2023/12/01 02:39:52;;;;;;;;;;;;;;;21.73;24.84;97434.13;4993635;28;983;-75
2023/12/01 02:42:17;;;;;;;;;;;;;;;21.37;25.30;97428.13;4977531;28;988;-75
2023/12/01 02:44:43;;;;;;;;;;;;;;;21.35;25.39;97427.78;5006333;28;1057;-75
2023/12/01 02:47:09;;;;;;;;;;;;;;;21.45;25.19;97435.09;5016101;28;1121;-76
2023/12/01 02:49:35;;;;;;;;;;;;;;;21.47;25.45;97443.94;5000186;28;1071;-76
2023/12/01 02:52:01;;;;;;;;;;;;;;;21.88;24.60;97439.25;4999681;28;955;-75
2023/12/01 02:54:26;;;;;;;;;;;;;;;21.92;24.70;97442.75;4999690;28;1975;-76
2023/12/01 02:56:52;;;;;;;;;;;;;;;21.91;24.75;97444.00;4999760;28;1053;-76
2023/12/01 02:59:17;;;;;;;;;;;;;;;21.67;25.00;97430.28;4996272;28;1186;-76
2023/12/01 03:01:43;;;;;;;;;;;;;;;21.79;25.02;97426.59;4996421;28;1005;-76
2023/12/01 03:04:08;;;;;;;;;;;;;;;22.07;24.71;97435.28;4996359;28;908;-76
2023/12/01 03:06:34;;;;;;;;;;;;;;;21.90;24.98;97425.41;5014247;28;1016;-76
2023/12/01 03:08:59;;;;;;;;;;;;;;;21.79;25.09;97420.94;4999509;28;1296;-75
2023/12/01 03:11:25;;;;;;;;;;;;;;;21.74;24.78;97413.03;4999497;28;1097;-76
2023/12/01 03:13:50;;;;;;;;;;;;;;;21.43;25.52;97412.94;5015788;28;1906;-76
2023/12/01 03:16:16;;;;;;;;;;;;;;;20.84;26.00;97416.56;4983309;28;1537;-75
2023/12/01 03:18:42;;;;;;;;;;;;;;;21.19;25.96;97412.53;4995847;28;1512;-76
2023/12/01 03:21:12;;;;;;;;;;;;;;;21.91;24.66;97421.34;4995984;28;993;-75
2023/12/01 03:23:39;;;;;;;;;;;;;;;21.78;25.03;97416.53;4995926;28;1018;-76
2023/12/01 03:26:07;;;;;;;;;;;;;;;21.94;24.88;97409.09;4979922;28;947;-76
2023/12/01 03:28:33;;;;;;;;;;;;;;;22.14;24.44;97406.75;4995577;28;1052;-76
2023/12/01 03:30:59;;;;;;;;;;;;;;;22.03;24.55;97412.00;5011422;28;1113;-75
2023/12/01 03:33:24;;;;;;;;;;;;;;;21.88;25.13;97399.63;5031340;28;1967;-75
2023/12/01 03:35:50;;;;;;;;;;;;;;;21.81;25.15;97417.63;5031661;28;1128;-75
2023/12/01 03:38:15;;;;;;;;;;;;;;;21.50;25.26;97420.38;5031725;28;928;-76
2023/12/01 03:40:41;;;;;;;;;;;;;;;21.22;25.75;97411.59;5031778;28;1240;-76
2023/12/01 03:43:07;;;;;;;;;;;;;;;21.41;25.63;97409.00;5031671;28;1350;-76
2023/12/01 03:45:32;;;;;;;;;;;;;;;21.73;25.04;97405.78;5015326;28;975;-75
2023/12/01 03:47:58;;;;;;;;;;;;;;;21.66;25.18;97394.75;4998844;28;1226;-76
2023/12/01 03:50:24;;;;;;;;;;;;;;;21.87;25.08;97398.03;5047578;28;877;-76
2023/12/01 03:52:49;;;;;;;;;;;;;;;21.68;25.27;97385.78;5019320;28;1959;-75
2023/12/01 03:55:15;;;;;;;;;;;;;;;21.84;24.83;97383.53;5019296;28;1252;-76
2023/12/01 03:57:42;;;;;;;;;;;;;;;21.65;25.00;97367.66;5035764;28;1289;-75
2023/12/01 04:00:08;;;;;;;;;;;;;;;21.37;25.43;97374.38;5035670;28;933;-75
2023/12/01 04:02:41;;;;;;;;;;;;;;;21.35;25.59;97374.00;5035528;28;956;-76
2023/12/01 04:05:07;;;;;;;;;;;;;;;21.62;25.22;97374.25;5035853;28;1138;-76
2023/12/01 04:07:33;;;;;;;;;;;;;;;21.58;25.22;97382.88;5019200;28;1159;-76
2023/12/01 04:09:59;;;;;;;;;;;;;;;21.98;24.81;97378.59;5019286;28;1322;-76
2023/12/01 04:12:24;;;;;;;;;;;;;;;21.82;24.83;97380.38;5018874;28;1976;-76
2023/12/01 04:14:50;;;;;;;;;;;;;;;21.93;24.91;97379.97;5018172;28;1225;-76
2023/12/01 04:17:15;;;;;;;;;;;;;;;21.85;25.20;97376.59;5018964;28;1576;-76
2023/12/01 04:19:41;;;;;;;;;;;;;;;21.90;25.14;97368.78;5011016;28;1273;-76
2023/12/01 04:22:07;;;;;;;;;;;;;;;21.62;25.20;97370.63;5011348;28;1312;-76
2023/12/01 04:24:33;;;;;;;;;;;;;;;21.26;25.81;97367.00;5011109;28;975;-76
2023/12/01 04:27:02;;;;;;;;;;;;;;;21.35;25.77;97351.38;5011057;28;1170;-76
2023/12/01 04:29:29;;;;;;;;;;;;;;;21.73;25.19;97366.16;5010994;28;938;-76
2023/12/01 04:31:55;;;;;;;;;;;;;;;21.68;25.35;97363.91;5010890;28;947;-76
2023/12/01 04:34:20;;;;;;;;;;;;;;;21.49;25.58;97368.63;5011220;28;1914;-76
2023/12/01 04:36:46;;;;;;;;;;;;;;;21.71;25.11;97368.66;4995017;28;1264;-76
2023/12/01 04:39:14;;;;;;;;;;;;;;;21.65;25.47;97370.47;5010928;28;1003;-75
2023/12/01 04:41:39;;;;;;;;;;;;;;;21.97;24.87;97374.19;4994645;28;1066;-76
2023/12/01 04:44:05;;;;;;;;;;;;;;;21.85;25.09;97365.28;4994904;28;970;-76
2023/12/01 04:46:30;;;;;;;;;;;;;;;21.69;25.10;97376.81;4994676;28;1007;-75
2023/12/01 04:48:56;;;;;;;;;;;;;;;21.66;25.07;97380.59;4994750;28;1568;-75
2023/12/01 04:51:21;;;;;;;;;;;;;;;21.54;25.35;97376.53;5026975;28;1145;-76
2023/12/01 04:53:48;;;;;;;;;;;;;;;21.36;25.78;97381.28;5034749;28;1910;-76
2023/12/01 04:56:13;;;;;;;;;;;;;;;21.69;25.21;97376.81;5017580;28;1198;-76
2023/12/01 04:58:39;;;;;;;;;;;;;;;21.69;25.19;97381.69;5000854;28;1100;-76
2023/12/01 05:01:05;;;;;;;;;;;;;;;21.62;25.23;97394.06;5035932;28;968;-76
2023/12/01 05:03:30;;;;;;;;;;;;;;;21.78;25.01;97385.38;5037783;28;904;-76
2023/12/01 05:05:58;;;;;;;;;;;;;;;21.90;24.75;97380.09;5038012;28;802;-76
2023/12/01 05:08:23;;;;;;;;;;;;;;;21.94;24.98;97380.75;5004801;28;1315;-76
2023/12/01 05:10:50;;;;;;;;;;;;;;;22.12;24.57;97386.56;5021202;28;873;-76
2023/12/01 05:13:15;;;;;;;;;;;;;;;22.02;24.88;97382.06;5021142;28;1910;-76
2023/12/01 05:15:41;;;;;;;;;;;;;;;22.10;24.83;97386.22;5037813;28;764;-76
2023/12/01 05:18:07;;;;;;;;;;;;;;;21.97;24.85;97394.00;5021082;28;1233;-76
2023/12/01 05:20:33;;;;;;;;;;;;;;;21.62;25.27;97394.06;5021402;28;815;-75
2023/12/01 05:22:59;;;;;;;;;;;;;;;21.35;25.83;97397.47;5004612;28;1090;-76
2023/12/01 05:25:25;;;;;;;;;;;;;;;21.50;25.48;97398.53;5020995;28;1599;-75
2023/12/01 05:27:52;;;;;;;;;;;;;;;21.67;25.32;97401.97;5021803;28;777;-76
2023/12/01 05:30:18;;;;;;;;;;;;;;;21.75;25.18;97391.94;5021783;28;834;-76
2023/12/01 05:32:44;;;;;;;;;;;;;;;21.84;25.10;97397.69;5022092;28;1906;-76
2023/12/01 05:35:10;;;;;;;;;;;;;;;22.03;24.70;97390.13;5022388;28;723;-76
2023/12/01 05:38:04;;;;;;;;;;;;;;;21.99;24.76;97400.00;5039278;28;871;-76
2023/12/01 05:40:31;;;;;;;;;;;;;;;22.01;25.07;97391.81;4978105;28;1003;-76
2023/12/01 05:42:57;;;;;;;;;;;;;;;21.74;25.56;97396.03;4961869;28;1323;-76
2023/12/01 05:45:23;;;;;;;;;;;;;;;22.07;24.86;97387.13;4962258;28;961;-76
2023/12/01 05:47:50;;;;;;;;;;;;;;;22.05;24.85;97386.81;4962074;28;756;-76
2023/12/01 05:50:16;;;;;;;;;;;;;;;21.64;25.27;97394.38;4961925;28;1059;-76
2023/12/01 05:52:42;;;;;;;;;;;;;;;21.53;25.60;97385.50;4961952;28;1911;-76
2023/12/01 05:55:10;;;;;;;;;;;;;;;21.33;25.89;97383.75;4977964;28;767;-75
2023/12/01 05:57:36;;;;;;;;;;;;;;;21.83;25.23;97381.94;4959026;28;1232;-76
2023/12/01 06:00:02;;;;;;;;;;;;;;;21.97;25.25;97382.69;4958731;29;1640;-76
2023/12/01 06:02:37;;;;;;;;;;;;;;;21.72;25.56;97381.56;4958372;29;814;-76
2023/12/01 06:05:03;;;;;;;;;;;;;;;21.97;25.22;97389.13;4942748;29;1067;-76
2023/12/01 06:07:28;;;;;;;;;;;;;;;21.76;25.49;97393.56;4942188;29;1207;-76
2023/12/01 06:09:54;;;;;;;;;;;;;;;21.97;24.97;97391.97;4958103;29;1210;-76
2023/12/01 06:12:19;;;;;;;;;;;;;;;22.02;25.21;97399.06;4957468;28;1907;-76
2023/12/01 06:14:45;;;;;;;;;;;;;;;22.19;25.03;97396.84;4958218;29;787;-76
2023/12/01 06:17:10;;;;;;;;;;;;;;;22.23;24.99;97389.78;4970732;28;907;-76
2023/12/01 06:19:36;;;;;;;;;;;;;;;21.91;25.41;97396.63;4997210;28;785;-75
2023/12/01 06:22:01;;;;;;;;;;;;;;;21.97;25.24;97391.19;5013452;28;970;-76
2023/12/01 06:24:27;;;;;;;;;;;;;;;21.88;25.44;97393.94;4997227;28;874;-76
2023/12/01 06:26:53;;;;;;;;;;;;;;;21.64;25.62;97390.78;5013074;28;811;-75
2023/12/01 06:29:18;;;;;;;;;;;;;;;21.47;26.08;97388.13;5013162;28;803;-76
2023/12/01 06:31:44;;;;;;;;;;;;;;;21.66;25.55;97397.56;5037701;28;787;-76
2023/12/01 06:34:10;;;;;;;;;;;;;;;21.87;25.52;97392.38;5020692;28;1902;-76
2023/12/01 06:36:35;;;;;;;;;;;;;;;21.89;25.21;97401.97;5020839;28;719;-76
2023/12/01 06:39:01;;;;;;;;;;;;;;;21.98;25.32;97392.75;5020428;28;763;-76
2023/12/01 06:41:26;;;;;;;;;;;;;;;21.79;25.67;97394.66;5020861;28;790;-76
2023/12/01 06:43:52;;;;;;;;;;;;;;;21.68;25.44;97392.22;5003181;28;1209;-76
2023/12/01 06:46:17;;;;;;;;;;;;;;;21.24;26.38;97392.16;5037175;28;739;-75
2023/12/01 06:48:43;;;;;;;;;;;;;;;21.00;26.57;97400.25;5004181;28;1227;-76
2023/12/01 06:51:28;;;;;;;;;;;;;;;21.23;26.44;97389.75;5038393;28;675;-76
2023/12/01 06:53:56;;;;;;;;;;;;;;;21.83;25.32;97398.94;5015585;28;1902;-76
2023/12/01 06:56:21;;;;;;;;;;;;;;;21.92;25.47;97386.13;4999997;28;1075;-76
2023/12/01 06:58:47;;;;;;;;;;;;;;;21.84;25.53;97383.53;4999720;28;885;-76
2023/12/01 07:01:18;;;;;;;;;;;;;;;21.84;25.54;97389.19;4999611;28;1639;-76
2023/12/01 07:03:49;;;;;;;;;;;;;;;22.18;24.91;97379.06;4999371;28;833;-76
2023/12/01 07:06:16;;;;;;;;;;;;;;;21.97;25.28;97379.84;5015874;28;814;-76
2023/12/01 07:08:41;;;;;;;;;;;;;;;21.92;25.37;97372.75;4976012;28;1146;-76
2023/12/01 07:11:07;;;;;;;;;;;;;;;21.75;25.24;97380.63;4960502;28;1131;-76
2023/12/01 07:13:33;;;;;;;;;;;;;;;21.49;25.65;97376.34;4976664;28;1914;-76
2023/12/01 07:15:58;;;;;;;;;;;;;;;21.21;26.30;97376.09;4976653;28;1042;-75
2023/12/01 07:18:24;;;;;;;;;;;;;;;21.57;26.12;97374.84;4976261;28;1004;-76
2023/12/01 07:20:49;;;;;;;;;;;;;;;21.69;25.59;97373.97;4992725;28;1163;-75
2023/12/01 07:23:17;;;;;;;;;;;;;;;21.70;25.59;97378.38;4976569;28;752;-75
2023/12/01 07:25:47;;;;;;;;;;;;;;;21.78;25.40;97382.56;4976745;28;763;-76
2023/12/01 07:28:12;;;;;;;;;;;;;;;22.02;25.02;97377.22;4996056;28;795;-76
2023/12/01 07:30:40;;;;;;;;;;;;;;;21.93;25.39;97384.84;4957120;29;902;-76
2023/12/01 07:33:06;;;;;;;;;;;;;;;21.77;25.58;97383.81;4956590;28;1915;-75
2023/12/01 07:35:31;;;;;;;;;;;;;;;21.76;25.62;97381.41;4956630;29;911;-76
2023/12/01 07:37:57;;;;;;;;;;;;;;;21.95;25.49;97382.34;4956728;28;749;-76
2023/12/01 07:40:23;;;;;;;;;;;;;;;21.83;25.61;97387.63;4956545;29;788;-75
2023/12/01 07:42:49;;;;;;;;;;;;;;;21.90;25.48;97374.44;4956555;29;1227;-76
2023/12/01 07:45:17;;;;;;;;;;;;;;;21.42;26.14;97380.22;4959322;28;1169;-76
2023/12/01 07:47:46;;;;;;;;;;;;;;;21.19;26.28;97366.47;4975791;28;1004;-76
2023/12/01 07:50:14;;;;;;;;;;;;;;;21.28;26.52;97375.03;4976111;28;1085;-76
2023/12/01 07:52:41;;;;;;;;;;;;;;;21.61;26.00;97374.72;4975833;28;1907;-76
2023/12/01 07:55:07;;;;;;;;;;;;;;;21.87;25.62;97369.72;4975397;28;873;-76
2023/12/01 07:57:32;;;;;;;;;;;;;;;21.88;25.19;97371.28;4959481;28;1322;-75
2023/12/01 07:59:58;;;;;;;;;;;;;;;21.75;25.60;97363.63;4959393;28;822;-76
2023/12/01 08:02:23;;;;;;;;;;;;;;;21.93;25.52;97356.53;4991389;28;917;-75
2023/12/01 08:04:49;;;;;;;;;;;;;;;21.96;25.57;97358.41;4995249;28;877;-76
2023/12/01 08:07:14;;;;;;;;;;;;;;;22.03;25.24;97358.16;4979200;28;1160;-76
2023/12/01 08:09:40;;;;;;;;;;;;;;;21.93;25.59;97362.97;4995225;28;1266;-76
2023/12/01 08:12:05;;;;;;;;;;;;;;;22.26;25.12;97356.88;4978953;28;1617;-76
2023/12/01 08:14:31;;;;;;;;;;;;;;;21.63;25.17;97276.75;4978307;28;1922;-76
2023/12/01 08:16:56;;;;;;;;;;;;;;;21.63;25.81;97361.69;4979032;28;1259;-75
2023/12/01 08:19:22;;;;;;;;;;;;;;;21.31;26.35;97349.47;4975218;28;1031;-76
2023/12/01 08:21:47;;;;;;;;;;;;;;;21.30;25.93;97362.06;4975265;28;960;-76
2023/12/01 08:24:13;;;;;;;;;;;;;;;21.64;25.96;97357.59;4960426;28;1030;-76
2023/12/01 08:26:38;;;;;;;;;;;;;;;21.67;25.95;97370.84;4984253;28;805;-76
2023/12/01 08:29:04;;;;;;;;;;;;;;;22.02;25.27;97348.06;4946276;28;937;-76
2023/12/01 08:31:33;;;;;;;;;;;;;;;21.88;25.34;97354.28;4978659;28;1213;-76
2023/12/01 08:33:58;;;;;;;;;;;;;;;21.98;25.44;97355.94;4978686;28;1903;-76
2023/12/01 08:36:24;;;;;;;;;;;;;;;22.05;25.22;97358.47;4977842;28;901;-75
2023/12/01 08:38:50;;;;;;;;;;;;;;;22.06;25.45;97349.50;4978632;28;916;-76
2023/12/01 08:41:15;;;;;;;;;;;;;;;21.93;25.26;97350.88;5011041;28;1408;-75
2023/12/01 08:43:41;;;;;;;;;;;;;;;21.61;26.03;97335.88;4975107;28;1451;-76
2023/12/01 08:46:06;;;;;;;;;;;;;;;21.53;26.00;97348.69;4973418;28;809;-76
2023/12/01 08:48:32;;;;;;;;;;;;;;;21.54;26.06;97355.94;4978852;28;811;-75
2023/12/01 08:50:57;;;;;;;;;;;;;;;21.85;25.76;97351.13;4973566;28;1733;-75
2023/12/01 08:53:24;;;;;;;;;;;;;;;21.73;25.87;97349.16;4978237;28;1910;-75
2023/12/01 08:55:50;;;;;;;;;;;;;;;21.80;25.69;97354.53;4962349;28;779;-76
2023/12/01 08:58:17;;;;;;;;;;;;;;;21.78;25.64;97359.09;4978579;28;712;-76
2023/12/01 09:00:43;;;;;;;;;;;;;;;22.12;25.26;97352.56;4978022;28;894;-76
2023/12/01 09:03:08;;;;;;;;;;;;;;;21.95;25.64;97354.81;4978235;28;889;-76
2023/12/01 09:05:34;;;;;;;;;;;;;;;21.79;25.82;97340.84;4978360;28;795;-76
2023/12/01 09:08:04;;;;;;;;;;;;;;;21.68;25.99;97344.09;4978382;28;1089;-75
2023/12/01 09:10:29;;;;;;;;;;;;;;;21.59;26.17;97344.03;4978565;28;1130;-76
2023/12/01 09:12:55;;;;;;;;;;;;;;;21.33;26.50;97337.69;4978109;28;1906;-76
2023/12/01 09:15:20;;;;;;;;;;;;;;;21.77;25.85;97332.03;4994458;28;920;-75
2023/12/01 09:17:46;;;;;;;;;;;;;;;21.98;25.67;97339.72;4994642;28;791;-75
2023/12/01 09:20:11;;;;;;;;;;;;;;;21.76;25.86;97331.25;4977997;28;1172;-76
2023/12/01 09:22:37;;;;;;;;;;;;;;;22.08;25.27;97337.72;4958685;28;973;-76
2023/12/01 09:25:03;;;;;;;;;;;;;;;21.90;25.52;97329.13;4958917;28;1142;-76
2023/12/01 09:27:28;;;;;;;;;;;;;;;22.11;25.52;97333.97;4961185;28;930;-76
2023/12/01 09:29:54;;;;;;;;;;;;;;;21.69;25.66;97340.00;4994495;28;1225;-76
2023/12/01 09:32:19;;;;;;;;;;;;;;;21.54;26.04;97333.28;4994452;28;867;-75
2023/12/01 09:34:45;;;;;;;;;;;;;;;21.75;25.75;97335.31;4978403;28;1977;-75
2023/12/01 09:37:12;;;;;;;;;;;;;;;21.41;26.48;97327.72;4978171;28;1428;-75
2023/12/01 09:39:37;;;;;;;;;;;;;;;21.92;25.60;97327.41;4955445;29;951;-76
2023/12/01 09:42:05;;;;;;;;;;;;;;;22.07;25.45;97333.28;4939302;29;1094;-76
2023/12/01 09:44:31;;;;;;;;;;;;;;;22.14;25.30;97333.06;4955431;28;1060;-76
2023/12/01 09:46:58;;;;;;;;;;;;;;;21.81;25.93;97327.00;4974665;28;1202;-76
2023/12/01 09:49:24;;;;;;;;;;;;;;;22.11;25.59;97322.66;4977858;28;945;-76
2023/12/01 09:51:49;;;;;;;;;;;;;;;22.00;25.34;97320.22;4978251;28;790;-76
2023/12/01 09:54:15;;;;;;;;;;;;;;;21.55;26.17;97323.53;4977835;28;1940;-76
2023/12/01 09:56:40;;;;;;;;;;;;;;;21.13;26.82;97328.69;4977937;28;1148;-76
2023/12/01 09:59:07;;;;;;;;;;;;;;;21.61;25.93;97307.56;4980199;28;805;-76
2023/12/01 10:01:33;;;;;;;;;;;;;;;21.81;25.70;97293.84;4997212;28;827;-76
2023/12/01 10:03:58;;;;;;;;;;;;;;;21.65;25.86;97304.59;4997304;28;1100;-76
2023/12/01 10:06:24;;;;;;;;;;;;;;;21.82;25.63;97318.06;4997018;28;761;-75
2023/12/01 10:08:49;;;;;;;;;;;;;;;21.74;25.75;97311.09;4997168;28;1086;-76
2023/12/01 10:11:19;;;;;;;;;;;;;;;21.87;25.76;97307.41;4996812;28;999;-76
2023/12/01 10:13:45;;;;;;;;;;;;;;;22.06;25.46;97303.41;4980767;28;1914;-76
2023/12/01 10:16:11;;;;;;;;;;;;;;;21.83;25.55;97294.16;4997122;28;955;-76
2023/12/01 10:18:37;;;;;;;;;;;;;;;21.66;25.91;97292.81;4980773;28;1188;-76
2023/12/01 10:21:03;;;;;;;;;;;;;;;21.48;26.12;97281.34;4939004;29;1105;-76
2023/12/01 10:23:28;;;;;;;;;;;;;;;21.23;26.58;97287.91;4938899;29;865;-76
2023/12/01 10:25:54;;;;;;;;;;;;;;;21.69;25.89;97297.53;4938876;29;901;-76
2023/12/01 10:28:20;;;;;;;;;;;;;;;21.67;25.83;97290.78;4938930;29;1109;-76
2023/12/01 10:30:51;;;;;;;;;;;;;;;21.89;25.60;97293.56;4939171;29;943;-76
2023/12/01 10:33:17;;;;;;;;;;;;;;;21.82;25.66;97286.94;4939037;29;1980;-75
2023/12/01 10:35:56;;;;;;;;;;;;;;;21.94;25.75;97287.28;4938557;29;862;-75
2023/12/01 10:38:22;;;;;;;;;;;;;;;22.18;25.03;97294.06;4938762;29;1217;-76
2023/12/01 10:40:48;;;;;;;;;;;;;;;21.78;25.69;97289.09;4939000;29;798;-76
2023/12/01 10:43:13;;;;;;;;;;;;;;;21.91;25.75;97291.03;4956195;28;1555;-76
2023/12/01 10:45:39;;;;;;;;;;;;;;;21.69;26.06;97286.22;4942101;29;810;-76
2023/12/01 10:48:04;;;;;;;;;;;;;;;21.28;26.48;97302.25;4942073;29;1130;-76
2023/12/01 10:50:30;;;;;;;;;;;;;;;21.22;26.85;97298.44;4941972;29;820;-76
2023/12/01 10:52:55;;;;;;;;;;;;;;;21.79;26.20;97299.16;4989904;28;1910;-76
2023/12/01 10:55:21;;;;;;;;;;;;;;;21.93;25.57;97294.22;4997671;28;822;-76
2023/12/01 10:57:46;;;;;;;;;;;;;;;21.85;25.89;97294.47;4997133;28;775;-75
2023/12/01 11:00:29;;;;;;;;;;;;;;;21.99;25.74;97298.03;4997422;28;803;-76
2023/12/01 11:02:58;;;;;;;;;;;;;;;21.91;25.66;97296.72;4998144;28;834;-76
2023/12/01 11:05:23;;;;;;;;;;;;;;;21.62;26.03;97291.38;4997473;28;878;-76
2023/12/01 11:07:49;;;;;;;;;;;;;;;21.51;26.15;97291.78;4980086;28;1118;-75
2023/12/01 11:10:19;;;;;;;;;;;;;;;21.43;26.34;97287.63;5012722;28;1077;-76
2023/12/01 11:12:44;;;;;;;;;;;;;;;21.54;26.43;97279.50;4999115;28;1985;-76
2023/12/01 11:15:17;;;;;;;;;;;;;;;21.55;26.42;97278.25;5015668;28;809;-76
2023/12/01 11:17:43;;;;;;;;;;;;;;;21.76;25.90;97263.31;5015779;28;864;-76
2023/12/01 11:20:29;;;;;;;;;;;;;;;21.99;25.76;97255.53;5018677;28;948;-75
2023/12/01 11:23:24;;;;;;;;;;;;;;;21.93;25.80;97268.72;5035034;28;993;-75
2023/12/01 11:25:55;;;;;;;;;;;;;;;21.65;25.83;97257.25;4960149;28;962;-75
2023/12/01 11:28:27;;;;;;;;;;;;;;;21.19;26.62;97268.25;4975893;28;887;-75
2023/12/01 11:31:07;;;;;;;;;;;;;;;21.28;26.87;97273.97;4976225;28;1064;-75
2023/12/01 11:33:39;;;;;;;;;;;;;;;21.50;26.54;97273.19;4976072;28;1898;-75
2023/12/01 11:36:23;;;;;;;;;;;;;;;21.72;26.05;97268.31;4975968;28;900;-76
2023/12/01 11:41:39;;;;;;;;;;;;;;;21.85;25.68;97274.66;4995844;28;763;-75
2023/12/01 11:44:07;;;;;;;;;;;;;;;21.86;25.71;97281.09;4995758;28;1229;-76
2023/12/01 11:46:33;;;;;;;;;;;;;;;21.77;25.70;97276.19;4979244;28;1350;-76
2023/12/01 11:48:58;;;;;;;;;;;;;;;21.33;26.33;97270.56;4995234;28;1032;-76
2023/12/01 11:51:24;;;;;;;;;;;;;;;21.40;26.48;97258.22;4972181;28;1252;-76
2023/12/01 11:53:59;;;;;;;;;;;;;;;21.68;26.22;97261.97;4972613;28;1979;-75
2023/12/01 11:56:24;;;;;;;;;;;;;;;21.77;25.68;97267.72;4972442;28;1086;-76
2023/12/01 11:58:51;;;;;;;;;;;;;;;21.66;25.93;97264.50;4962295;28;906;-75
2023/12/01 12:01:16;;;;;;;;;;;;;;;21.95;25.60;97275.50;4982137;28;1038;-76
2023/12/01 12:03:42;;;;;;;;;;;;;;;22.06;25.39;97264.50;5018103;28;790;-76
2023/12/01 12:06:08;;;;;;;;;;;;;;;21.81;25.84;97261.88;5018466;28;716;-76
2023/12/01 12:08:33;;;;;;;;;;;;;;;21.45;26.48;97265.28;5014799;28;1113;-76
2023/12/01 12:11:00;;;;;;;;;;;;;;;21.29;26.65;97264.22;4997731;28;1005;-76
2023/12/01 12:13:26;;;;;;;;;;;;;;;20.87;27.07;97260.09;4998376;28;1899;-76
2023/12/01 12:15:52;;;;;;;;;;;;;;;21.30;26.32;97260.19;5014925;28;700;-76
2023/12/01 12:18:19;;;;;;;;;;;;;;;21.66;26.06;97264.50;4998091;28;774;-76
2023/12/01 12:20:46;;;;;;;;;;;;;;;21.84;25.55;97247.59;4939983;29;1088;-76
2023/12/01 12:23:11;;;;;;;;;;;;;;;21.83;25.76;97246.03;4940282;29;1255;-75
2023/12/01 12:25:37;;;;;;;;;;;;;;;21.65;25.93;97250.78;4940205;29;932;-76
2023/12/01 12:28:12;;;;;;;;;;;;;;;21.75;25.88;97241.09;4940270;29;811;-76
2023/12/01 12:30:37;;;;;;;;;;;;;;;21.73;25.75;97241.56;4955976;29;786;-75
2023/12/01 12:33:04;;;;;;;;;;;;;;;21.69;25.80;97255.06;4940419;29;1902;-75
2023/12/01 12:35:30;;;;;;;;;;;;;;;21.55;26.13;97247.94;4939976;29;936;-75
2023/12/01 12:37:55;;;;;;;;;;;;;;;21.73;25.62;97246.44;4956189;29;886;-75
2023/12/01 12:40:21;;;;;;;;;;;;;;;21.79;25.48;97228.38;4939780;29;982;-76
2023/12/01 12:42:56;;;;;;;;;;;;;;;21.95;25.38;97229.38;4956141;29;943;-76
2023/12/01 12:45:22;;;;;;;;;;;;;;;21.98;25.58;97234.13;4939749;29;804;-75
2023/12/01 12:47:47;;;;;;;;;;;;;;;21.90;25.59;97233.59;4956159;29;882;-76
2023/12/01 12:50:22;;;;;;;;;;;;;;;21.86;25.45;97249.94;4940056;29;815;-75
2023/12/01 12:52:47;;;;;;;;;;;;;;;21.93;25.37;97238.34;4994462;28;1898;-76
2023/12/01 12:55:22;;;;;;;;;;;;;;;21.49;26.05;97241.25;4958997;28;1105;-75
2023/12/01 12:57:48;;;;;;;;;;;;;;;21.05;26.73;97243.31;4958907;28;975;-75
2023/12/01 13:00:14;;;;;;;;;;;;;;;21.66;26.00;97252.38;4959210;28;899;-76